Wausau, WI

11:25 PM CST on January 16, 2017 (GMT -0600)
NorthWest Wausau, near NTC | | Change Station
Active Advisory: Winter Storm Warning

Elev 1230 ft 44.98 °N, 89.65 °W | Updated 3 seconds ago

Light Freezing Rain
Light Freezing Rain Mist
34.5 °F
Feels Like 34 °F
N
0.0
Wind Variable Wind from ENE
Gusts 0.0 mph

Today
High -- | Low -- °F
--% Chance of Precip.
Yesterday
High -- | Low -- °F
Precip. -- in
Pressure 29.94 in
Visibility 3.0 miles
Clouds Overcast 500 ft
Windchill 34 °F
Dew Point 33 °F
Humidity 94%
Rainfall 0.00 in
Snow Depth Not available.
7:32 AM 4:45 PM
Waning Gibbous, 75% visible
SPECI KAUW 170507Z AUTO 08005KT 3SM -FZRA BR OVC005 00/M01 A2994 RMK AO2 P0000 I1001 T00001006
Pressure 29.94 in
Visibility 3.0 miles
Clouds Overcast 500 ft
Windchill 34 °F
Dew Point 33 °F
Humidity 94%
Rainfall 0.00 in
Snow Depth Not available.
7:32 AM 4:45 PM
Waning Gibbous, 75% visible
SPECI KAUW 170507Z AUTO 08005KT 3SM -FZRA BR OVC005 00/M01 A2994 RMK AO2 P0000 I1001 T00001006

Get Your Daily Forecast Email!

Thanks for signing up!

Be on the lookout for a verification email in your inbox.

You'll start receiving the daily forecast at 8 AM.

×

10-Day Weather Forecast

Almanac

Astronomy

Jan. 16, 2017 Rise Set
Actual Time
Civil Twilight
Nautical Twilight
Astronomical Twilight
Moon
Length of Visible Light
Length of Day
Tomorrow will be .
, % of the Moon is Illuminated

Today's Extremes

State Highs State Lows

Community

WunderPhotos

Upload Photos

1,962,540 photos uploaded!

WunderBlog® & News

Nearby

Air Quality

  Air Quality AQ Index Pollutant
Not available.

Snow Depth

Station Depth Elevation

Earthquake Activity

City Distance Mag. Time & Date
Minimum magnitude displayed is 2.5.

Coastal Water Temperatures

Place Temperature

Stations

Nearby Weather Stations

Station Location Temp. Windchill Dew Point Humidity Wind Precip. Elev Updated Type
                   

Watches & Warnings

Winter Storm Warning
Issued: 6:27 PM CST Jan. 16, 2017 – National Weather Service

... Winter Storm Warning in effect until noon CST Tuesday...

The National Weather Service in Green Bay has issued a Winter
Storm Warning for mixed precipitation... which is in effect until
noon CST Tuesday. The Winter Weather Advisory is no longer in
effect.

* Timing... freezing rain, mixed with sleet or snow at times, will
continue through Tuesday morning.

* Snow and ice accumulations... ice accumulations of a quarter inch
or more are expected. A half inch of ice is possible if the
precipitation remains as freezing rain. Some sleet and snow is
possible.

* Impacts... the freezing rain will result in untreated pavement
becoming very slippery. Travel will be extremely hazardous.

Precautionary/preparedness actions...

A Winter Storm Warning means significant amounts of
snow... sleet... and ice are expected or occurring. Strong winds are
also possible. This will make travel very hazardous. The latest
Wisconsin Road conditions can be obtained by calling 511.